Time;durP1;ratioP1;P1;durP2;ratioP2;P2;SDS_P1;SDS_P2;PMS_P1;PMS_P2;Temp;Humidity;BMP_temperature;BMP_pressure;BME280_temperature;BME280_humidity;BME280_pressure;Samples;Min_cycle;Max_cycle;Signal;HPM_P1;HPM_P2
2024/01/07 00:00:56;;;;;;;11.93;5.03;;;;;;;4.96;83.26;100356.38;4960920;28;20185;-71
2024/01/07 00:04:00;;;;;;;;;;;;;;;4.98;83.29;100358.03;4969601;28;20046;-70
2024/01/07 00:07:04;;;;;;;6.35;5.00;;;;;;;4.79;84.26;100360.38;4971651;28;20395;-71
2024/01/07 00:10:08;;;;;;;8.43;6.22;;;;;;;4.95;83.48;100355.56;4974569;28;20038;-70
2024/01/07 00:13:12;;;;;;;7.97;6.07;;;;;;;4.98;83.46;100365.81;4963967;28;20045;-70
2024/01/07 00:16:15;;;;;;;;;;;;;;;4.95;83.18;100365.06;4971770;28;20416;-70
2024/01/07 00:19:18;;;;;;;7.45;5.10;;;;;;;5.00;82.61;100368.34;4976161;28;19920;-70
2024/01/07 00:22:22;;;;;;;8.02;5.97;;;;;;;4.99;83.55;100364.91;4972933;28;20105;-70
2024/01/07 00:25:25;;;;;;;9.02;7.03;;;;;;;4.64;84.07;100374.63;4974099;28;20092;-70
2024/01/07 00:28:32;;;;;;;8.27;6.10;;;;;;;4.77;84.73;100379.44;4938136;29;20050;-70
2024/01/07 00:31:36;;;;;;;7.97;6.45;;;;;;;4.93;84.24;100377.22;4926119;29;20551;-70
2024/01/07 00:34:40;;;;;;;7.57;6.10;;;;;;;4.71;84.13;100377.88;4947863;28;20072;-71
2024/01/07 00:37:45;;;;;;;7.85;6.40;;;;;;;4.66;85.03;100379.78;4943757;28;20134;-70
2024/01/07 00:41:00;;;;;;;8.23;6.63;;;;;;;4.86;84.17;100387.75;4943037;28;20050;-71
2024/01/07 00:44:07;;;;;;;8.68;6.65;;;;;;;4.84;84.25;100386.97;4903923;29;20051;-70
2024/01/07 00:47:15;;;;;;;13.68;7.80;;;;;;;4.89;84.59;100382.50;4941266;28;20517;-72
2024/01/07 00:50:24;;;;;;;7.63;6.32;;;;;;;4.88;83.27;100386.00;4935340;28;20046;-69
2024/01/07 00:53:30;;;;;;;7.60;5.90;;;;;;;4.82;83.25;100399.13;4926619;28;20051;-70
2024/01/07 00:56:33;;;;;;;7.32;5.93;;;;;;;4.90;83.21;100391.94;4961158;28;20086;-71
2024/01/07 00:59:40;;;;;;;9.70;6.65;;;;;;;4.93;83.09;100397.94;4948642;28;20425;-71
2024/01/07 01:02:45;;;;;;;8.05;6.20;;;;;;;4.97;82.71;100402.13;4951059;28;20077;-70
2024/01/07 01:05:50;;;;;;;7.50;6.13;;;;;;;5.04;82.42;100404.50;4942947;28;20058;-70
2024/01/07 01:08:53;;;;;;;7.95;6.20;;;;;;;4.98;82.32;100407.28;4943041;28;20109;-71
2024/01/07 01:11:57;;;;;;;;;;;;;;;4.94;81.89;100405.66;4944227;28;20057;-71
2024/01/07 01:15:00;;;;;;;7.15;5.57;;;;;;;4.98;82.50;100407.28;4933737;29;20050;-71
2024/01/07 01:18:03;;;;;;;;;;;;;;;4.98;83.29;100416.75;4955899;28;20074;-71
2024/01/07 01:21:07;;;;;;;6.25;5.30;;;;;;;4.88;82.12;100416.19;4943822;28;19921;-70
2024/01/07 01:24:11;;;;;;;6.50;5.03;;;;;;;4.93;81.11;100410.91;4943609;28;20062;-70
2024/01/07 01:27:15;;;;;;;;;;;;;;;5.01;81.97;100411.50;4955956;29;20587;-70
2024/01/07 01:30:18;;;;;;;6.63;5.50;;;;;;;5.02;81.63;100420.97;4955691;28;19926;-70
2024/01/07 01:33:22;;;;;;;;;;;;;;;5.04;81.41;100422.63;4956410;28;20046;-70
2024/01/07 01:36:26;;;;;;;;;;;;;;;4.93;80.93;100423.84;4933923;29;19965;-70
2024/01/07 01:39:29;;;;;;;7.30;5.43;;;;;;;4.95;80.44;100424.66;4955439;28;19979;-70
2024/01/07 01:42:33;;;;;;;6.82;5.40;;;;;;;4.92;81.19;100432.53;4944194;28;20042;-71
2024/01/07 01:45:36;;;;;;;6.55;5.45;;;;;;;4.96;81.73;100426.34;4955562;28;20074;-70
2024/01/07 01:48:41;;;;;;;;;;;;;;;4.93;81.83;100435.06;4956455;28;20054;-70
2024/01/07 01:51:45;;;;;;;7.47;5.55;;;;;;;4.92;81.52;100435.13;4956330;29;19925;-70
2024/01/07 01:54:48;;;;;;;6.93;5.65;;;;;;;4.96;81.69;100434.13;4955902;28;20049;-70
2024/01/07 01:57:53;;;;;;;8.18;5.13;;;;;;;4.83;81.84;100437.06;4944249;28;20688;-70
2024/01/07 02:00:56;;;;;;;6.82;5.55;;;;;;;4.94;82.01;100431.56;4933364;28;20045;-70
2024/01/07 02:04:00;;;;;;;9.07;5.90;;;;;;;4.95;81.70;100440.22;4943817;28;20098;-70
2024/01/07 02:07:04;;;;;;;8.05;6.05;;;;;;;4.92;80.98;100435.13;4942639;29;20113;-70
2024/01/07 02:10:07;;;;;;;7.68;6.35;;;;;;;4.92;80.77;100438.56;4944644;28;20589;-70
2024/01/07 02:13:11;;;;;;;7.93;6.25;;;;;;;4.97;80.72;100441.00;4974865;28;20096;-70
2024/01/07 02:16:15;;;;;;;7.28;5.40;;;;;;;4.95;81.10;100437.63;4974956;28;20082;-70
2024/01/07 02:19:20;;;;;;;9.05;5.85;;;;;;;4.93;82.14;100437.66;4974373;28;20105;-70
2024/01/07 02:22:23;;;;;;;7.57;5.82;;;;;;;4.94;81.90;100436.75;4961972;28;20247;-70
2024/01/07 02:25:26;;;;;;;;;;;;;;;4.98;81.21;100437.50;4974736;28;20078;-68
2024/01/07 02:28:30;;;;;;;8.30;6.72;;;;;;;4.70;81.25;100447.84;4954405;28;19930;-68
2024/01/07 02:31:32;;;;;;;8.05;6.43;;;;;;;4.58;82.29;100438.69;4954538;29;20125;-68
2024/01/07 02:34:36;;;;;;;8.00;6.47;;;;;;;4.78;81.76;100438.09;4931535;29;20071;-68
2024/01/07 02:37:39;;;;;;;7.63;6.78;;;;;;;4.86;81.61;100449.09;4954128;29;20042;-68
2024/01/07 02:40:43;;;;;;;10.80;6.53;;;;;;;4.82;82.19;100450.94;4942148;29;20050;-68
2024/01/07 02:43:46;;;;;;;8.13;6.75;;;;;;;4.82;82.42;100444.91;4942888;29;20120;-69
2024/01/07 02:46:52;;;;;;;8.90;6.60;;;;;;;5.02;81.55;100445.16;4942228;29;20409;-69
2024/01/07 02:49:59;;;;;;;9.80;7.35;;;;;;;4.97;81.19;100446.19;4942891;29;20075;-68
2024/01/07 02:53:54;;;;;;;10.38;6.70;;;;;;;4.98;81.29;100440.97;4931929;29;20094;-68
2024/01/07 02:56:57;;;;;;;9.00;6.85;;;;;;;4.99;81.91;100449.56;4932132;29;20387;-68
2024/01/07 03:00:00;;;;;;;;;;;;;;;5.03;81.42;100451.16;4955231;29;20070;-68
2024/01/07 03:03:04;;;;;;;8.40;6.78;;;;;;;5.02;81.50;100455.50;4954737;29;19923;-68
2024/01/07 03:06:08;;;;;;;;;;;;;;;4.99;81.33;100455.59;4955559;29;20086;-68
2024/01/07 03:09:11;;;;;;;;;;;;;;;5.04;80.52;100455.44;4943345;29;19991;-69
2024/01/07 03:12:15;;;;;;;13.85;9.00;;;;;;;4.99;81.06;100453.00;4954823;29;19926;-68
2024/01/07 03:15:19;;;;;;;19.52;13.18;;;;;;;4.97;81.21;100459.97;4954564;29;20511;-69
2024/01/07 03:18:22;;;;;;;;;;;;;;;4.97;81.57;100456.53;4943411;29;20102;-69
2024/01/07 03:21:25;;;;;;;8.60;6.55;;;;;;;4.92;80.83;100458.44;4954723;29;19960;-69
2024/01/07 03:24:28;;;;;;;7.63;5.82;;;;;;;4.99;81.37;100454.75;4942548;29;20054;-69
2024/01/07 03:27:32;;;;;;;7.20;5.72;;;;;;;4.84;81.77;100456.91;4942304;29;20099;-69
2024/01/07 03:30:35;;;;;;;9.32;5.85;;;;;;;4.85;82.10;100458.63;4954344;29;20058;-69
2024/01/07 03:33:39;;;;;;;7.07;5.75;;;;;;;4.70;81.07;100459.06;4953529;29;20050;-69
2024/01/07 03:36:43;;;;;;;7.55;5.45;;;;;;;4.58;82.17;100460.25;4941713;28;20516;-69
2024/01/07 03:39:47;;;;;;;7.85;5.45;;;;;;;4.61;81.50;100460.16;4952558;28;20105;-69
2024/01/07 03:42:50;;;;;;;7.75;5.45;;;;;;;4.44;81.95;100462.41;4947201;28;20116;-69
2024/01/07 03:45:53;;;;;;;;;;;;;;;4.56;82.35;100471.53;4977430;28;20054;-69
2024/01/07 03:48:56;;;;;;;7.95;5.32;;;;;;;4.78;81.54;100469.19;4977274;28;19925;-69
2024/01/07 03:51:59;;;;;;;7.32;5.57;;;;;;;4.29;82.67;100463.66;4976789;28;20045;-69
2024/01/07 03:55:03;;;;;;;;;;;;;;;4.55;82.51;100465.53;4977531;28;20066;-69
2024/01/07 03:58:06;;;;;;;5.88;3.67;;;;;;;4.66;82.34;100468.66;4965165;28;19941;-70
2024/01/07 04:01:09;;;;;;;7.80;5.25;;;;;;;4.45;82.15;100474.44;4953853;28;20094;-70
2024/01/07 04:04:13;;;;;;;9.80;5.53;;;;;;;4.52;82.37;100482.88;4965129;28;20062;-70
2024/01/07 04:07:16;;;;;;;10.02;6.65;;;;;;;4.55;83.08;100480.22;4964260;28;20041;-70
2024/01/07 04:10:22;;;;;;;10.45;7.45;;;;;;;4.78;81.93;100472.63;4938568;29;20126;-70
2024/01/07 04:13:25;;;;;;;6.68;4.97;;;;;;;4.82;81.15;100484.63;4915426;29;20477;-69
2024/01/07 04:16:28;;;;;;;;;;;;;;;4.79;81.49;100487.28;4950000;28;20054;-70
2024/01/07 04:19:32;;;;;;;7.40;5.30;;;;;;;4.89;81.17;100488.72;4945734;28;19925;-70
2024/01/07 04:22:35;;;;;;;;;;;;;;;4.78;81.12;100490.75;4957685;28;20086;-69
2024/01/07 04:25:40;;;;;;;8.00;4.80;;;;;;;4.73;81.09;100484.88;4957129;28;19920;-69
2024/01/07 04:29:09;;;;;;;7.40;5.30;;;;;;;4.60;82.12;100493.91;4957446;28;20042;-69
2024/01/07 04:32:12;;;;;;;7.68;5.72;;;;;;;4.60;82.12;100496.47;4957292;28;20042;-69
2024/01/07 04:35:15;;;;;;;7.65;5.25;;;;;;;4.51;83.38;100501.91;4956219;28;20520;-69
2024/01/07 04:38:18;;;;;;;5.95;4.43;;;;;;;4.48;83.46;100504.59;4942938;28;20813;-69
2024/01/07 04:41:23;;;;;;;;;;;;;;;4.63;83.58;100507.59;4958830;28;20066;-69
2024/01/07 04:44:26;;;;;;;5.40;3.85;;;;;;;4.63;83.88;100509.34;4975853;28;20000;-70
2024/01/07 04:47:31;;;;;;;6.05;4.28;;;;;;;4.62;83.92;100518.00;4976648;28;20042;-70
2024/01/07 04:50:34;;;;;;;5.20;3.97;;;;;;;4.73;83.33;100515.97;4953625;28;20113;-69
2024/01/07 04:53:38;;;;;;;4.75;3.50;;;;;;;4.49;83.67;100511.44;4962134;28;20054;-69
2024/01/07 04:56:41;;;;;;;;;;;;;;;4.56;84.30;100519.03;4954667;28;20054;-69
2024/01/07 04:59:45;;;;;;;6.03;3.65;;;;;;;4.63;83.97;100523.13;4957848;28;20005;-69
2024/01/07 05:02:48;;;;;;;5.43;3.90;;;;;;;4.39;83.96;100526.38;4962612;28;20050;-70
2024/01/07 05:05:51;;;;;;;;;;;;;;;4.21;84.04;100532.88;4976677;28;20571;-69
2024/01/07 05:08:55;;;;;;;5.53;3.92;;;;;;;4.32;84.82;100533.47;4957627;28;20422;-70
2024/01/07 05:11:59;;;;;;;5.25;3.63;;;;;;;4.53;84.27;100534.66;4957914;28;20524;-69
2024/01/07 05:15:12;;;;;;;4.50;3.22;;;;;;;4.66;83.67;100536.00;4953953;28;20046;-69
2024/01/07 05:18:22;;;;;;;5.63;3.47;;;;;;;4.68;83.10;100537.69;4975871;28;20049;-69
2024/01/07 05:21:25;;;;;;;5.47;3.35;;;;;;;4.38;83.59;100546.25;4963565;28;20050;-69
2024/01/07 05:24:28;;;;;;;;;;;;;;;4.18;84.49;100551.13;4963514;28;20145;-69
2024/01/07 05:27:32;;;;;;;4.05;2.75;;;;;;;4.46;83.93;100553.81;4975217;28;19928;-69
2024/01/07 05:30:35;;;;;;;;;;;;;;;4.63;84.34;100553.38;4976032;28;20054;-69
2024/01/07 05:33:39;;;;;;;4.10;2.88;;;;;;;4.68;83.16;100559.25;4975447;28;19964;-69
2024/01/07 05:36:42;;;;;;;5.18;3.13;;;;;;;4.74;82.48;100564.28;4975377;28;20105;-69
2024/01/07 05:39:46;;;;;;;;;;;;;;;4.64;83.56;100560.25;4963740;28;20050;-69
2024/01/07 05:42:50;;;;;;;4.40;3.08;;;;;;;4.68;83.60;100569.63;4975316;28;20439;-69
2024/01/07 05:45:53;;;;;;;;;;;;;;;4.75;82.96;100568.56;4975298;28;20044;-69
2024/01/07 05:48:56;;;;;;;3.85;2.72;;;;;;;4.71;82.21;100574.72;4975122;28;20569;-69
2024/01/07 05:51:59;;;;;;;3.83;2.75;;;;;;;4.80;82.49;100581.41;4975382;28;20053;-69
2024/01/07 05:55:03;;;;;;;;;;;;;;;4.76;82.80;100588.41;4975447;28;20456;-70
2024/01/07 05:58:07;;;;;;;;;;;;;;;4.77;83.40;100584.06;4975597;28;20358;-69
2024/01/07 06:01:09;;;;;;;3.50;2.70;;;;;;;4.82;83.54;100593.41;4974398;28;19938;-69
2024/01/07 06:04:13;;;;;;;3.78;2.72;;;;;;;4.78;84.29;100602.16;4974654;28;20057;-69
2024/01/07 06:07:16;;;;;;;5.18;3.05;;;;;;;4.84;83.50;100596.81;4975015;28;20578;-69
2024/01/07 06:10:19;;;;;;;4.38;3.10;;;;;;;4.80;82.91;100608.16;4948732;28;20049;-69
2024/01/07 06:13:23;;;;;;;4.13;3.10;;;;;;;4.76;82.89;100603.94;4942652;29;20583;-69
2024/01/07 06:16:26;;;;;;;4.05;2.65;;;;;;;4.70;83.97;100611.88;4942681;28;20057;-69
2024/01/07 06:19:29;;;;;;;;;;;;;;;4.79;84.01;100613.38;4953645;28;20042;-69
2024/01/07 06:22:32;;;;;;;3.30;2.37;;;;;;;4.78;83.61;100617.69;4942477;28;19925;-69
2024/01/07 06:25:35;;;;;;;4.18;2.65;;;;;;;4.88;82.83;100621.75;4942207;28;20350;-69
2024/01/07 06:28:39;;;;;;;3.65;2.50;;;;;;;4.66;83.91;100628.41;4954662;28;20098;-69
2024/01/07 06:31:46;;;;;;;4.68;2.72;;;;;;;4.62;84.46;100625.00;4943136;28;20050;-69
2024/01/07 06:34:50;;;;;;;3.88;2.70;;;;;;;4.45;85.82;100627.19;4955572;28;20102;-69
2024/01/07 06:37:53;;;;;;;3.28;2.25;;;;;;;4.35;86.49;100634.34;4955476;28;20054;-69
2024/01/07 06:41:00;;;;;;;4.25;2.78;;;;;;;4.28;86.97;100638.00;4943503;28;20047;-69
2024/01/07 06:44:03;;;;;;;4.70;2.50;;;;;;;4.40;87.00;100642.00;4943550;29;20062;-69
2024/01/07 06:47:06;;;;;;;;;;;;;;;4.32;87.18;100652.56;4955585;28;20125;-69
2024/01/07 06:50:10;;;;;;;7.93;6.65;;;;;;;4.57;86.71;100649.34;4954244;28;19926;-69
2024/01/07 06:53:13;;;;;;;5.35;4.53;;;;;;;4.69;85.19;100654.22;4931484;28;20126;-69
2024/01/07 06:56:17;;;;;;;3.92;3.15;;;;;;;4.56;86.40;100663.16;4954304;28;20137;-69
2024/01/07 06:59:22;;;;;;;4.43;3.10;;;;;;;4.73;85.57;100660.16;4953417;28;20038;-70
2024/01/07 07:02:51;;;;;;;4.63;2.85;;;;;;;4.58;85.46;100661.41;4883522;29;20192;-69
2024/01/07 07:05:55;;;;;;;4.93;3.33;;;;;;;4.48;87.03;100670.31;4955779;28;20054;-70
2024/01/07 07:08:58;;;;;;;;;;;;;;;4.54;86.90;100670.16;4953683;28;20054;-70
2024/01/07 07:12:01;;;;;;;4.57;3.15;;;;;;;4.47;87.68;100673.75;4941168;28;19991;-70
2024/01/07 07:15:05;;;;;;;;;;;;;;;4.56;87.03;100678.72;4953824;28;20054;-70
2024/01/07 07:18:09;;;;;;;7.20;3.70;;;;;;;4.74;84.85;100688.59;4930743;29;19973;-71
2024/01/07 07:21:12;;;;;;;;;;;;;;;4.52;85.31;100685.72;4953816;28;20413;-71
2024/01/07 07:24:16;;;;;;;5.47;3.85;;;;;;;4.58;85.24;100697.66;4942277;28;20386;-70
2024/01/07 07:27:19;;;;;;;;;;;;;;;4.60;82.99;100695.91;4942080;28;20102;-68
2024/01/07 07:30:23;;;;;;;6.43;4.85;;;;;;;4.56;82.63;100702.00;4953602;28;19929;-69
2024/01/07 07:33:26;;;;;;;5.65;4.50;;;;;;;4.63;82.35;100712.22;4953011;28;20082;-70
2024/01/07 07:36:29;;;;;;;7.13;5.43;;;;;;;4.54;82.73;100712.44;4953604;28;20524;-69
2024/01/07 07:39:37;;;;;;;7.85;5.95;;;;;;;4.47;83.56;100723.84;4951335;28;20122;-69
2024/01/07 07:42:43;;;;;;;8.07;5.18;;;;;;;4.52;83.80;100727.13;4952707;28;20444;-69
2024/01/07 07:45:47;;;;;;;7.80;5.30;;;;;;;4.58;83.61;100723.56;4953092;28;20049;-69
2024/01/07 07:48:50;;;;;;;;;;;;;;;4.62;83.43;100735.53;4952588;28;20047;-69
2024/01/07 07:51:55;;;;;;;7.88;5.88;;;;;;;4.55;83.05;100731.41;4952082;28;19972;-68
2024/01/07 07:54:58;;;;;;;7.05;5.13;;;;;;;4.44;83.58;100742.03;4953893;28;20520;-69
2024/01/07 07:58:02;;;;;;;6.57;5.47;;;;;;;4.41;84.36;100753.28;4954085;29;20050;-70
2024/01/07 08:01:06;;;;;;;7.45;5.50;;;;;;;4.28;85.08;100751.03;4961391;28;20045;-69
2024/01/07 08:04:10;;;;;;;8.50;5.50;;;;;;;4.32;85.00;100763.84;4949604;28;20394;-69
2024/01/07 08:07:13;;;;;;;7.70;5.97;;;;;;;4.34;84.19;100766.41;4961217;28;20174;-68
2024/01/07 08:10:21;;;;;;;8.93;6.05;;;;;;;4.14;84.64;100764.25;4972313;28;20046;-69
2024/01/07 08:13:25;;;;;;;8.75;5.95;;;;;;;4.22;85.46;100777.91;4972411;28;20046;-69
2024/01/07 08:16:28;;;;;;;;;;;;;;;4.29;84.88;100774.28;4972569;28;20049;-70
2024/01/07 08:19:32;;;;;;;9.80;6.40;;;;;;;4.33;84.88;100773.31;4972454;28;20407;-70
2024/01/07 08:22:37;;;;;;;8.27;6.63;;;;;;;4.52;84.50;100780.69;4973085;28;20053;-70
2024/01/07 08:25:41;;;;;;;8.63;6.40;;;;;;;4.51;83.87;100784.16;4961446;28;20093;-70
2024/01/07 08:28:44;;;;;;;7.13;5.80;;;;;;;4.58;83.41;100786.56;4964008;28;20046;-70
2024/01/07 08:31:48;;;;;;;7.75;6.00;;;;;;;4.58;83.89;100793.47;4964726;28;20515;-70
2024/01/07 08:34:51;;;;;;;8.68;6.50;;;;;;;4.61;83.40;100791.66;4976086;28;20424;-71
2024/01/07 08:37:54;;;;;;;9.52;6.38;;;;;;;4.68;82.41;100788.94;4971522;28;20105;-69
2024/01/07 08:40:57;;;;;;;;;;;;;;;4.64;82.91;100796.78;4960729;28;20033;-70
2024/01/07 08:44:00;;;;;;;7.60;5.90;;;;;;;4.45;82.87;100797.25;4971664;28;19941;-69
2024/01/07 08:47:04;;;;;;;9.63;6.53;;;;;;;4.56;82.91;100798.72;4962310;28;20121;-71
2024/01/07 08:50:08;;;;;;;8.65;7.07;;;;;;;4.58;82.99;100796.06;4972614;28;20404;-72
2024/01/07 08:53:12;;;;;;;;;;;;;;;4.81;82.34;100804.13;4976737;28;20113;-71
2024/01/07 08:56:15;;;;;;;10.75;7.70;;;;;;;4.85;82.01;100810.97;4976502;28;20078;-69
2024/01/07 08:59:18;;;;;;;9.48;7.20;;;;;;;4.73;81.93;100811.25;4964609;28;20058;-73
2024/01/07 09:02:21;;;;;;;9.50;7.28;;;;;;;4.58;82.88;100811.59;4964087;28;20050;-70
2024/01/07 09:05:25;;;;;;;9.13;7.10;;;;;;;4.63;81.50;100822.72;4953306;28;20080;-69
2024/01/07 09:08:28;;;;;;;;;;;;;;;4.80;81.07;100823.16;4976563;28;20098;-70
2024/01/07 09:11:32;;;;;;;8.35;6.30;;;;;;;4.79;80.64;100818.03;4976404;28;20386;-69
2024/01/07 09:14:37;;;;;;;10.60;8.07;;;;;;;4.70;81.02;100826.03;4976320;28;20404;-69
2024/01/07 09:17:40;;;;;;;9.60;6.72;;;;;;;4.58;82.78;100832.31;4976109;28;20054;-67
2024/01/07 09:20:44;;;;;;;9.98;7.75;;;;;;;4.49;83.61;100835.97;4975766;28;20038;-80
2024/01/07 09:23:47;;;;;;;9.43;7.38;;;;;;;4.61;83.96;100840.03;4963767;28;20062;-69
2024/01/07 09:26:51;;;;;;;;;;;;;;;4.71;81.49;100844.09;4963676;28;20054;-69
2024/01/07 09:29:54;;;;;;;11.43;8.48;;;;;;;4.79;81.37;100854.31;4975391;28;19929;-69
2024/01/07 09:32:58;;;;;;;11.85;7.57;;;;;;;4.79;80.71;100851.72;4974995;28;20057;-69
2024/01/07 09:36:01;;;;;;;11.15;8.30;;;;;;;4.89;80.01;100861.81;4975588;28;20114;-69
2024/01/07 09:39:07;;;;;;;10.52;7.75;;;;;;;4.85;80.35;100860.19;4975369;28;20052;-69
2024/01/07 09:42:18;;;;;;;36.45;24.25;;;;;;;4.84;79.46;100861.06;4963143;28;20428;-70
2024/01/07 09:45:23;;;;;;;10.85;9.07;;;;;;;4.68;78.71;100875.25;4963275;28;20061;-71
2024/01/07 09:48:34;;;;;;;7.72;6.10;;;;;;;4.81;78.42;100870.66;4954130;28;20049;-71
2024/01/07 09:51:45;;;;;;;7.75;6.07;;;;;;;4.73;75.92;100867.41;4962261;28;20054;-73
2024/01/07 09:54:52;;;;;;;7.68;5.68;;;;;;;4.63;76.36;100875.38;4959967;28;20124;-69
2024/01/07 09:57:56;;;;;;;7.85;6.03;;;;;;;4.56;76.48;100880.72;4924624;29;20532;-71
2024/01/07 10:00:59;;;;;;;7.88;5.90;;;;;;;4.52;76.69;100886.84;4936888;29;20043;-70
2024/01/07 10:04:03;;;;;;;8.40;6.78;;;;;;;4.59;76.02;100896.19;4945272;28;20523;-70
2024/01/07 10:07:06;;;;;;;;;;;;;;;4.47;76.02;100893.84;4970403;28;20181;-72
2024/01/07 10:10:17;;;;;;;9.25;6.80;;;;;;;4.42;76.75;100889.63;4973837;28;19944;-72
2024/01/07 10:13:22;;;;;;;11.05;7.70;;;;;;;4.40;77.57;100896.59;4944703;28;20159;-70
2024/01/07 10:16:27;;;;;;;10.90;8.23;;;;;;;4.41;77.01;100894.84;4951827;28;20058;-70
2024/01/07 10:19:30;;;;;;;10.98;8.52;;;;;;;4.19;78.76;100897.88;4952669;28;20062;-70
2024/01/07 10:22:34;;;;;;;10.77;7.97;;;;;;;4.27;78.69;100904.63;4953246;28;20469;-70
2024/01/07 10:25:37;;;;;;;;;;;;;;;4.19;78.83;100902.19;4951432;28;20053;-70
2024/01/07 10:28:43;;;;;;;10.63;8.10;;;;;;;4.33;79.33;100905.34;4950668;28;19994;-70
2024/01/07 10:31:46;;;;;;;12.20;9.32;;;;;;;4.27;78.27;100905.47;4951484;28;20408;-69
2024/01/07 10:34:58;;;;;;;10.25;7.88;;;;;;;4.35;78.20;100908.78;4930330;28;20098;-69
2024/01/07 10:38:02;;;;;;;11.85;8.50;;;;;;;4.35;77.37;100902.75;4939098;28;20070;-69
2024/01/07 10:41:09;;;;;;;11.57;8.77;;;;;;;4.31;78.59;100909.72;4951837;28;20354;-69
2024/01/07 10:44:13;;;;;;;11.07;8.13;;;;;;;4.47;77.63;100904.19;4939629;28;20054;-70
2024/01/07 10:47:22;;;;;;;10.57;7.63;;;;;;;4.55;77.21;100904.91;4953544;28;20478;-70
2024/01/07 10:50:50;;;;;;;17.33;12.95;;;;;;;4.27;77.04;100905.47;4952155;28;20061;-70
2024/01/07 10:53:56;;;;;;;12.38;9.60;;;;;;;4.47;76.79;100914.56;4929248;28;21075;-70
2024/01/07 10:57:07;;;;;;;9.70;6.03;;;;;;;4.63;73.66;100910.78;4937872;28;20065;-71
2024/01/07 11:00:18;;;;;;;22.50;16.23;;;;;;;4.51;72.03;100918.81;4938787;28;20053;-70
2024/01/07 11:03:32;;;;;;;12.32;9.13;;;;;;;4.59;73.05;100917.75;4933931;29;20102;-70
2024/01/07 11:06:45;;;;;;;12.00;8.55;;;;;;;4.51;72.63;100926.59;4949353;28;20054;-69
2024/01/07 11:10:04;;;;;;;9.23;6.22;;;;;;;4.66;72.54;100921.09;4951706;28;20138;-70
2024/01/07 11:13:31;;;;;;;8.65;6.65;;;;;;;4.56;72.33;100922.13;4951322;28;20054;-69
2024/01/07 11:16:42;;;;;;;39.80;22.77;;;;;;;4.73;71.55;100916.63;4929172;28;20126;-69
2024/01/07 11:19:52;;;;;;;71.78;43.88;;;;;;;4.82;70.88;100917.28;4951744;28;20074;-69
2024/01/07 11:23:25;;;;;;;50.78;34.95;;;;;;;4.72;71.00;100922.66;4951740;28;20113;-69
2024/01/07 11:26:30;;;;;;;11.57;8.25;;;;;;;4.69;70.36;100928.78;4950448;28;20101;-68
2024/01/07 11:29:35;;;;;;;7.57;5.47;;;;;;;4.56;71.07;100923.03;4924912;29;20053;-70
2024/01/07 11:32:41;;;;;;;5.90;4.97;;;;;;;4.42;71.27;100925.88;4910762;29;20046;-69
2024/01/07 11:36:10;;;;;;;6.40;4.88;;;;;;;4.49;71.46;100921.41;4933785;29;20086;-69
2024/01/07 11:39:16;;;;;;;6.28;4.75;;;;;;;4.54;71.33;100929.13;4922415;29;20107;-68
2024/01/07 11:42:21;;;;;;;6.43;4.43;;;;;;;4.55;70.55;100928.22;4934492;29;20525;-69
2024/01/07 11:45:31;;;;;;;6.30;4.85;;;;;;;4.66;70.32;100923.69;4922118;29;20484;-71
2024/01/07 11:48:35;;;;;;;20.95;6.60;;;;;;;4.55;70.74;100925.63;4934035;29;20054;-68
2024/01/07 11:51:38;;;;;;;7.80;5.22;;;;;;;4.59;69.13;100919.50;4921654;29;20107;-68
2024/01/07 11:54:41;;;;;;;;;;;;;;;4.55;69.87;100923.88;4934076;29;20509;-67
2024/01/07 11:57:45;;;;;;;7.95;6.18;;;;;;;4.56;69.74;100927.31;4933964;29;19938;-66
2024/01/07 12:00:50;;;;;;;11.27;8.75;;;;;;;4.62;69.15;100929.78;4934290;29;20078;-67
2024/01/07 12:03:53;;;;;;;8.13;5.13;;;;;;;4.30;68.81;100926.13;4937151;29;20105;-68
2024/01/07 12:06:57;;;;;;;;;;;;;;;4.27;70.15;100940.88;4938280;29;20150;-67
2024/01/07 12:10:00;;;;;;;6.55;4.85;;;;;;;4.32;70.96;100929.53;4937385;29;19925;-67
2024/01/07 12:13:04;;;;;;;6.95;5.22;;;;;;;4.22;70.96;100942.72;4937317;29;20043;-67
2024/01/07 12:16:08;;;;;;;7.53;5.60;;;;;;;3.52;73.36;100943.09;4937657;29;20504;-66
2024/01/07 12:19:12;;;;;;;7.57;5.80;;;;;;;3.62;75.12;100951.53;4937700;29;20047;-66
2024/01/07 12:22:17;;;;;;;7.30;5.63;;;;;;;3.60;73.77;100955.88;4938353;29;20486;-67
2024/01/07 12:25:23;;;;;;;8.25;6.03;;;;;;;3.68;74.28;100954.88;4938347;29;20054;-66
2024/01/07 12:28:28;;;;;;;8.15;5.35;;;;;;;3.75;73.97;100960.78;4938290;29;20119;-69
2024/01/07 12:31:34;;;;;;;8.32;6.72;;;;;;;3.69;74.20;100968.66;4938114;29;20106;-68
2024/01/07 12:34:37;;;;;;;7.57;5.68;;;;;;;3.72;73.52;100974.63;4938485;29;20047;-67
2024/01/07 12:37:42;;;;;;;9.45;5.50;;;;;;;3.69;73.18;100973.81;4937266;29;20050;-66
2024/01/07 12:40:45;;;;;;;7.47;5.88;;;;;;;3.61;73.92;100980.88;4937819;29;20105;-66
2024/01/07 12:43:50;;;;;;;8.73;6.15;;;;;;;3.57;73.87;100979.19;4925919;29;20062;-67
2024/01/07 12:46:52;;;;;;;9.00;6.35;;;;;;;3.69;73.75;100977.25;4938072;29;20094;-69
2024/01/07 12:49:57;;;;;;;9.38;7.00;;;;;;;3.77;73.40;100979.72;4937647;29;20085;-68
2024/01/07 12:53:00;;;;;;;8.05;5.60;;;;;;;3.82;72.17;100980.50;4937743;29;20366;-65
2024/01/07 12:56:03;;;;;;;;;;;;;;;3.88;71.81;100977.81;4926415;29;20042;-67
2024/01/07 12:59:07;;;;;;;7.93;5.50;;;;;;;3.81;71.34;100989.13;4937805;29;19922;-65
2024/01/07 13:02:10;;;;;;;8.13;5.88;;;;;;;3.96;70.72;100978.53;4938218;29;20058;-66
2024/01/07 13:05:14;;;;;;;7.93;5.60;;;;;;;3.93;70.56;100983.75;4937834;29;20047;-67
2024/01/07 13:08:25;;;;;;;9.70;6.07;;;;;;;3.69;71.83;100987.59;4925993;29;20051;-67
2024/01/07 13:11:29;;;;;;;9.90;6.32;;;;;;;3.76;71.29;100984.91;4937698;29;20058;-66
2024/01/07 13:14:32;;;;;;;8.98;5.15;;;;;;;3.77;70.80;100987.50;4937081;29;20050;-66
2024/01/07 13:17:35;;;;;;;7.93;5.00;;;;;;;3.93;69.81;100991.53;4937108;29;20521;-65
2024/01/07 13:20:39;;;;;;;13.18;7.47;;;;;;;3.78;69.46;100998.69;4936693;29;20050;-70
2024/01/07 13:23:43;;;;;;;9.93;5.70;;;;;;;3.91;69.77;101008.78;4936562;29;20058;-67
2024/01/07 13:26:47;;;;;;;9.68;5.78;;;;;;;3.60;69.24;101005.00;4925516;29;20047;-70
2024/01/07 13:29:51;;;;;;;9.07;5.65;;;;;;;3.64;70.37;101011.84;4936937;29;20082;-69
2024/01/07 13:33:01;;;;;;;8.40;4.60;;;;;;;3.68;70.15;101010.91;4925850;29;20046;-67
2024/01/07 13:36:09;;;;;;;9.63;5.70;;;;;;;3.85;69.16;101016.66;4937233;29;20147;-67
2024/01/07 13:39:15;;;;;;;8.10;5.03;;;;;;;3.83;69.83;101023.59;4925310;29;20098;-66
2024/01/07 13:42:44;;;;;;;11.07;5.20;;;;;;;3.74;68.75;101031.50;4928011;29;20524;-66
2024/01/07 13:45:47;;;;;;;9.27;5.03;;;;;;;3.59;68.91;101035.19;4937052;29;20057;-66
2024/01/07 13:48:51;;;;;;;13.25;8.85;;;;;;;3.57;70.01;101036.06;4936663;29;20178;-66
2024/01/07 13:51:55;;;;;;;8.18;5.63;;;;;;;3.41;69.49;101041.47;4936783;29;20150;-66
2024/01/07 13:54:58;;;;;;;8.82;6.43;;;;;;;3.41;67.96;101050.97;4936539;29;20094;-67
2024/01/07 13:58:04;;;;;;;;;;;;;;;3.17;67.58;101047.00;4936809;29;20139;-68
2024/01/07 14:01:09;;;;;;;7.07;5.15;;;;;;;3.22;68.14;101055.53;4925006;29;19991;-70
2024/01/07 14:04:13;;;;;;;7.15;4.80;;;;;;;2.95;67.99;101056.75;4936955;29;20098;-69
2024/01/07 14:07:16;;;;;;;8.77;5.97;;;;;;;3.12;67.93;101065.13;4935578;29;20174;-67
2024/01/07 14:10:19;;;;;;;8.18;5.70;;;;;;;3.14;68.48;101070.31;4936375;29;20513;-68
2024/01/07 14:13:25;;;;;;;11.35;5.90;;;;;;;3.14;71.87;101073.72;4935704;29;20603;-69
2024/01/07 14:16:31;;;;;;;7.85;5.43;;;;;;;3.28;67.88;101076.13;4924689;29;20054;-66
2024/01/07 14:19:35;;;;;;;7.45;4.95;;;;;;;3.26;66.99;101088.22;4924814;29;20034;-66
2024/01/07 14:22:38;;;;;;;;;;;;;;;2.74;67.24;101094.00;4936604;29;20469;-66
2024/01/07 14:25:42;;;;;;;9.52;4.90;;;;;;;2.86;67.26;101100.78;4935723;29;20006;-65
2024/01/07 14:28:45;;;;;;;;;;;;;;;2.75;67.50;101118.97;4936651;29;20573;-64
2024/01/07 14:31:48;;;;;;;8.10;4.80;;;;;;;2.75;68.02;101122.41;4936045;29;20292;-65
2024/01/07 14:34:51;;;;;;;;;;;;;;;2.85;67.28;101130.91;4936408;29;20190;-64
2024/01/07 14:37:54;;;;;;;8.02;4.38;;;;;;;2.85;67.49;101136.09;4936117;29;20412;-64
2024/01/07 14:40:58;;;;;;;8.63;4.70;;;;;;;2.88;67.47;101140.38;4913441;29;20117;-65
2024/01/07 14:44:01;;;;;;;6.38;4.07;;;;;;;2.48;67.90;101144.16;4935973;29;20126;-64